createdAt,value
2023-03-26T00:01:36.940Z,100696.56
2023-03-26T00:04:03.913Z,100696.63
2023-03-26T00:06:34.892Z,100693.09
2023-03-26T00:09:01.494Z,100685.31
2023-03-26T00:11:29.219Z,100690.41
2023-03-26T00:13:59.840Z,100683.56
2023-03-26T00:16:31.208Z,100684.75
2023-03-26T00:18:58.294Z,100683.03
2023-03-26T00:21:29.235Z,100675.06
2023-03-26T00:24:01.106Z,100670.69
2023-03-26T00:26:29.443Z,100676.63
2023-03-26T00:28:56.045Z,100666.22
2023-03-26T00:31:22.722Z,100661.03
2023-03-26T00:33:55.447Z,100652.09
2023-03-26T00:36:25.743Z,100648.75
2023-03-26T00:38:53.877Z,100649.72
2023-03-26T00:41:30.989Z,100648.06
2023-03-26T00:43:59.110Z,100638.50
2023-03-26T00:46:27.067Z,100645.78
2023-03-26T00:48:54.109Z,100637.88
2023-03-26T00:51:21.465Z,100638.16
2023-03-26T00:53:49.258Z,100641.84
2023-03-26T00:56:15.920Z,100644.59
2023-03-26T00:58:42.694Z,100635.91
2023-03-26T01:01:13.914Z,100632.53
2023-03-26T01:03:45.699Z,100633.47
2023-03-26T01:06:27.829Z,100632.66
2023-03-26T01:09:00.056Z,100630.22
2023-03-26T01:11:29.839Z,100623.34
2023-03-26T01:14:02.160Z,100618.28
2023-03-26T01:16:45.142Z,100615.81
2023-03-26T01:19:26.909Z,100611.66
2023-03-26T01:21:53.473Z,100609.25
2023-03-26T01:24:20.759Z,100600.66
2023-03-26T01:26:54.335Z,100591.09
2023-03-26T01:29:36.081Z,100592.91
2023-03-26T01:32:17.492Z,100587.63
2023-03-26T01:35:02.844Z,100582.44
2023-03-26T01:37:37.172Z,100578.06
2023-03-26T01:40:11.891Z,100586.66
2023-03-26T01:42:49.162Z,100578.56
2023-03-26T01:45:19.007Z,100572.47
2023-03-26T01:47:46.483Z,100575.03
2023-03-26T01:50:13.410Z,100569.69
2023-03-26T01:52:40.009Z,100575.88
2023-03-26T01:55:11.652Z,100574.72
2023-03-26T01:57:47.410Z,100567.75
2023-03-26T02:00:22.818Z,100567.81
2023-03-26T02:03:17.786Z,100556.47
2023-03-26T02:05:56.694Z,100546.84
2023-03-26T02:08:24.592Z,100552.25
2023-03-26T02:10:57.543Z,100547.97
2023-03-26T02:13:25.096Z,100541.84
2023-03-26T02:16:00.630Z,100533.88
2023-03-26T02:18:36.398Z,100536.50
2023-03-26T02:21:26.192Z,100527.63
2023-03-26T02:24:03.049Z,100523.28
2023-03-26T02:26:31.857Z,100515.56
2023-03-26T02:28:59.078Z,100519.03
2023-03-26T02:31:26.569Z,100516.53
2023-03-26T02:33:55.518Z,100513.19
2023-03-26T02:36:27.345Z,100509.88
2023-03-26T02:38:55.731Z,100509.03
2023-03-26T02:41:22.309Z,100507.31
2023-03-26T02:43:49.078Z,100509.03
2023-03-26T02:46:16.102Z,100502.91
2023-03-26T02:48:43.943Z,100501.28
2023-03-26T02:51:10.470Z,100496.00
2023-03-26T02:53:37.615Z,100490.75
2023-03-26T02:56:04.620Z,100486.50
2023-03-26T02:58:31.174Z,100492.63
2023-03-26T03:00:57.826Z,100490.13
2023-03-26T03:03:26.243Z,100485.78
2023-03-26T03:05:57.145Z,100489.31
2023-03-26T03:08:26.421Z,100473.59
2023-03-26T03:11:00.859Z,100473.44
2023-03-26T03:13:28.023Z,100469.28
2023-03-26T03:15:55.247Z,100464.16
2023-03-26T03:18:22.402Z,100458.13
2023-03-26T03:20:49.874Z,100455.34
2023-03-26T03:23:16.417Z,100457.00
2023-03-26T03:25:43.293Z,100455.16
2023-03-26T03:28:09.860Z,100451.81
2023-03-26T03:30:36.644Z,100443.91
2023-03-26T03:33:03.634Z,100447.13
2023-03-26T03:35:30.370Z,100435.56
2023-03-26T03:37:57.999Z,100433.75
2023-03-26T03:40:24.660Z,100434.66
2023-03-26T03:42:51.570Z,100426.69
2023-03-26T03:45:18.824Z,100428.34
2023-03-26T03:47:45.451Z,100424.81
2023-03-26T03:50:12.113Z,100427.38
2023-03-26T03:52:38.710Z,100421.19
2023-03-26T03:55:05.658Z,100420.91
2023-03-26T03:57:33.236Z,100424.16
2023-03-26T03:59:59.716Z,100411.09
2023-03-26T04:02:30.488Z,100408.88
2023-03-26T04:05:00.504Z,100404.91
2023-03-26T04:07:28.355Z,100402.22
2023-03-26T04:09:54.999Z,100402.88
2023-03-26T04:12:21.603Z,100390.78
2023-03-26T04:14:48.632Z,100385.63
2023-03-26T04:17:15.410Z,100381.09
2023-03-26T04:19:44.150Z,100375.50
2023-03-26T04:22:11.909Z,100359.84
2023-03-26T04:24:40.071Z,100366.09
2023-03-26T04:27:08.917Z,100363.31
2023-03-26T04:29:42.982Z,100361.59
2023-03-26T04:32:14.265Z,100361.53
2023-03-26T04:34:45.945Z,100355.34
2023-03-26T04:37:24.774Z,100345.72
2023-03-26T04:39:51.501Z,100351.13
2023-03-26T04:42:20.065Z,100338.94
2023-03-26T04:44:52.266Z,100334.75
2023-03-26T04:47:18.990Z,100325.28
2023-03-26T04:49:47.368Z,100318.38
2023-03-26T04:52:14.556Z,100316.72
2023-03-26T04:54:43.604Z,100312.44
2023-03-26T04:57:20.551Z,100314.31
2023-03-26T04:59:47.270Z,100302.13
2023-03-26T05:02:14.135Z,100300.47
2023-03-26T05:04:40.799Z,100294.44
2023-03-26T05:07:07.462Z,100288.44
2023-03-26T05:09:33.998Z,100284.97
2023-03-26T05:12:00.531Z,100283.31
2023-03-26T05:14:27.025Z,100285.13
2023-03-26T05:16:53.687Z,100286.09
2023-03-26T05:19:20.198Z,100279.09
2023-03-26T05:21:46.673Z,100281.00
2023-03-26T05:24:13.160Z,100270.53
2023-03-26T05:26:39.950Z,100280.28
2023-03-26T05:29:06.534Z,100275.09
2023-03-26T05:31:33.028Z,100278.63
2023-03-26T05:34:02.465Z,100274.19
2023-03-26T05:36:29.111Z,100274.22
2023-03-26T05:38:55.615Z,100264.56
2023-03-26T05:41:22.091Z,100267.25
2023-03-26T05:43:49.030Z,100263.69
2023-03-26T05:46:16.169Z,100258.41
2023-03-26T05:48:42.866Z,100264.50
2023-03-26T05:51:09.578Z,100261.03
2023-03-26T05:53:36.417Z,100255.69
2023-03-26T05:56:04.209Z,100263.59
2023-03-26T05:58:33.384Z,100254.69
2023-03-26T06:01:08.657Z,100261.59
2023-03-26T06:03:39.728Z,100261.53
2023-03-26T06:06:08.360Z,100255.56
2023-03-26T06:08:34.867Z,100258.88
2023-03-26T06:11:03.292Z,100260.75
2023-03-26T06:13:29.982Z,100255.34
2023-03-26T06:15:58.279Z,100258.13
2023-03-26T06:18:26.159Z,100253.84
2023-03-26T06:20:53.331Z,100246.53
2023-03-26T06:23:20.334Z,100242.41
2023-03-26T06:25:47.797Z,100239.63
2023-03-26T06:28:15.311Z,100238.72
2023-03-26T06:30:42.106Z,100243.09
2023-03-26T06:33:08.870Z,100244.81
2023-03-26T06:35:35.616Z,100241.19
2023-03-26T06:38:02.661Z,100236.84
2023-03-26T06:40:29.340Z,100237.69
2023-03-26T06:43:09.008Z,100231.28
2023-03-26T06:45:37.319Z,100238.66
2023-03-26T06:48:04.557Z,100238.66
2023-03-26T06:50:32.256Z,100241.28
2023-03-26T06:52:58.786Z,100238.66
2023-03-26T06:55:26.253Z,100231.72
2023-03-26T06:57:54.128Z,100230.53
2023-03-26T07:00:21.339Z,100228.81
2023-03-26T07:02:47.945Z,100228.97
2023-03-26T07:05:14.908Z,100224.59
2023-03-26T07:07:46.396Z,100232.44
2023-03-26T07:10:13.850Z,100221.97
2023-03-26T07:12:41.624Z,100227.97
2023-03-26T07:15:09.408Z,100222.84
2023-03-26T07:17:36.072Z,100220.06
2023-03-26T07:20:02.977Z,100221.06
2023-03-26T07:22:29.769Z,100218.44
2023-03-26T07:24:56.748Z,100219.22
2023-03-26T07:27:36.018Z,100216.41
2023-03-26T07:30:14.331Z,100218.09
2023-03-26T07:32:47.753Z,100212.69
2023-03-26T07:35:29.557Z,100216.91
2023-03-26T07:38:30.439Z,100222.94
2023-03-26T07:41:05.888Z,100214.06
2023-03-26T07:43:41.403Z,100225.25
2023-03-26T07:46:13.325Z,100212.78
2023-03-26T07:48:41.659Z,100221.47
2023-03-26T07:51:09.205Z,100230.22
2023-03-26T07:53:36.083Z,100231.94
2023-03-26T07:56:15.931Z,100224.88
2023-03-26T07:59:11.900Z,100222.25
2023-03-26T08:01:56.786Z,100223.97
2023-03-26T08:04:56.122Z,100224.88
2023-03-26T08:07:32.642Z,100232.72
2023-03-26T08:10:21.059Z,100231.72
2023-03-26T08:13:02.762Z,100227.22
2023-03-26T08:15:39.715Z,100225.31
2023-03-26T08:18:27.749Z,100226.38
2023-03-26T08:20:59.983Z,100224.44
2023-03-26T08:23:32.733Z,100228.03
2023-03-26T08:26:30.632Z,100229.53
2023-03-26T08:28:59.317Z,100219.53
2023-03-26T08:31:33.789Z,100220.56
2023-03-26T08:34:00.907Z,100219.06
2023-03-26T08:36:27.944Z,100223.03
2023-03-26T08:38:54.506Z,100224.59
2023-03-26T08:41:39.154Z,100232.16
2023-03-26T08:44:27.196Z,100229.28
2023-03-26T08:47:08.803Z,100220.25
2023-03-26T08:50:08.588Z,100227.41
2023-03-26T08:52:43.036Z,100230.50
2023-03-26T08:55:33.122Z,100227.41
2023-03-26T08:58:18.803Z,100222.88
2023-03-26T09:01:24.432Z,100227.25
2023-03-26T09:04:03.084Z,100227.53
2023-03-26T09:06:58.922Z,100224.78
2023-03-26T09:09:54.599Z,100225.25
2023-03-26T09:12:53.747Z,100224.22
2023-03-26T09:15:39.555Z,100216.56
2023-03-26T09:18:35.324Z,100220.50
2023-03-26T09:21:22.270Z,100220.69
2023-03-26T09:24:09.765Z,100225.53
2023-03-26T09:26:55.035Z,100222.09
2023-03-26T09:29:49.500Z,100226.78
2023-03-26T09:32:34.086Z,100230.13
2023-03-26T09:35:13.084Z,100232.22
2023-03-26T09:38:10.663Z,100233.53
2023-03-26T09:41:01.190Z,100237.63
2023-03-26T09:43:57.303Z,100234.81
2023-03-26T09:46:29.816Z,100238.84
2023-03-26T09:48:59.465Z,100239.03
2023-03-26T09:51:29.919Z,100244.38
2023-03-26T09:54:04.493Z,100247.78
2023-03-26T09:56:42.833Z,100250.81
2023-03-26T09:59:38.906Z,100247.34
2023-03-26T10:02:46.314Z,100257.03
2023-03-26T10:05:49.728Z,100259.97
2023-03-26T10:08:44.366Z,100264.53
2023-03-26T10:11:19.922Z,100266.81
2023-03-26T10:14:13.828Z,100272.25
2023-03-26T10:17:16.734Z,100267.91
2023-03-26T10:19:46.041Z,100270.50
2023-03-26T10:22:24.739Z,100277.56
2023-03-26T10:25:13.181Z,100276.88
2023-03-26T10:27:52.433Z,100282.50
2023-03-26T10:30:39.450Z,100289.06
2023-03-26T10:33:31.757Z,100290.09
2023-03-26T10:36:10.598Z,100292.81
2023-03-26T10:39:09.179Z,100304.63
2023-03-26T10:41:54.014Z,100306.00
2023-03-26T10:44:26.467Z,100305.53
2023-03-26T10:46:59.728Z,100304.06
2023-03-26T10:49:49.880Z,100309.75
2023-03-26T10:52:21.596Z,100309.56
2023-03-26T10:55:12.049Z,100315.66
2023-03-26T10:57:44.360Z,100314.88
2023-03-26T11:00:16.814Z,100318.31
2023-03-26T11:03:24.786Z,100324.06
2023-03-26T11:05:58.243Z,100324.72
2023-03-26T11:08:36.994Z,100328.50
2023-03-26T11:11:19.443Z,100335.06
2023-03-26T11:13:55.066Z,100336.63
2023-03-26T11:16:47.488Z,100333.63
2023-03-26T11:19:24.310Z,100333.84
2023-03-26T11:21:56.906Z,100343.31
2023-03-26T11:25:14.876Z,100348.81
2023-03-26T11:28:14.019Z,100350.97
2023-03-26T11:30:59.435Z,100357.94
2023-03-26T11:33:32.569Z,100365.91
2023-03-26T11:36:05.169Z,100366.41
2023-03-26T11:38:42.231Z,100368.69
2023-03-26T11:41:22.728Z,100371.59
2023-03-26T11:44:12.858Z,100371.53
2023-03-26T11:46:43.432Z,100380.03
2023-03-26T11:49:12.776Z,100379.81
2023-03-26T11:51:41.051Z,100383.66
2023-03-26T11:54:10.814Z,100391.28
2023-03-26T11:57:07.012Z,100393.06
2023-03-26T11:59:53.051Z,100399.78
2023-03-26T12:02:34.454Z,100401.22
2023-03-26T12:05:21.926Z,100413.38
2023-03-26T12:08:16.679Z,100406.00
2023-03-26T12:10:43.343Z,100407.59
2023-03-26T12:13:29.641Z,100414.69
2023-03-26T12:16:04.990Z,100419.25
2023-03-26T12:18:32.172Z,100423.66
2023-03-26T12:21:08.498Z,100426.03
2023-03-26T12:23:45.844Z,100433.59
2023-03-26T12:26:18.293Z,100428.41
2023-03-26T12:28:49.680Z,100436.97
2023-03-26T12:31:19.128Z,100439.59
2023-03-26T12:34:07.532Z,100445.34
2023-03-26T12:36:35.998Z,100437.53
2023-03-26T12:39:42.870Z,100446.53
2023-03-26T12:44:43.870Z,100440.81
2023-03-26T12:44:59.269Z,100450.28
2023-03-26T12:47:59.995Z,100459.75
2023-03-26T12:50:34.698Z,100463.22
2023-03-26T12:53:18.020Z,100463.47
2023-03-26T12:56:01.877Z,100466.31
2023-03-26T12:59:14.162Z,100470.53
2023-03-26T13:01:52.802Z,100474.53
2023-03-26T13:04:34.094Z,100467.44
2023-03-26T13:07:25.719Z,100460.78
2023-03-26T13:10:23.490Z,100463.75
2023-03-26T13:12:52.689Z,100468.53
2023-03-26T13:15:31.349Z,100468.06
2023-03-26T13:18:22.028Z,100472.56
2023-03-26T13:21:28.635Z,100478.88
2023-03-26T13:24:22.795Z,100488.09
2023-03-26T13:27:01.340Z,100487.84
2023-03-26T13:29:56.497Z,100492.91
2023-03-26T13:32:33.869Z,100491.25
2023-03-26T13:35:24.775Z,100499.34
2023-03-26T13:38:15.583Z,100505.03
2023-03-26T13:41:07.065Z,100507.84
2023-03-26T13:43:47.009Z,100506.59
2023-03-26T13:46:35.498Z,100507.59
2023-03-26T13:49:06.284Z,100506.28
2023-03-26T13:51:47.885Z,100512.72
2023-03-26T13:54:26.525Z,100513.19
2023-03-26T13:57:09.512Z,100517.81
2023-03-26T13:59:46.615Z,100511.50
2023-03-26T14:02:29.751Z,100510.75
2023-03-26T14:05:01.380Z,100516.72
2023-03-26T14:07:36.114Z,100515.22
2023-03-26T14:10:12.820Z,100525.84
2023-03-26T14:12:59.765Z,100523.75
2023-03-26T14:15:41.476Z,100528.47
2023-03-26T14:18:23.217Z,100540.72
2023-03-26T14:21:08.869Z,100540.88
2023-03-26T14:24:00.607Z,100541.41
2023-03-26T14:26:49.047Z,100535.56
2023-03-26T14:29:31.104Z,100546.28
2023-03-26T14:32:29.699Z,100540.31
2023-03-26T14:35:42.190Z,100553.03
2023-03-26T14:38:42.732Z,100551.41
2023-03-26T14:41:41.625Z,100551.34
2023-03-26T14:44:48.488Z,100566.28
2023-03-26T14:47:21.316Z,100567.84
2023-03-26T14:50:20.330Z,100576.41
2023-03-26T14:53:00.823Z,100582.16
2023-03-26T14:55:49.847Z,100590.22
2023-03-26T14:58:48.055Z,100601.66
2023-03-26T15:01:25.367Z,100600.22
2023-03-26T15:04:24.468Z,100606.03
2023-03-26T15:06:50.948Z,100612.22
2023-03-26T15:09:29.486Z,100626.59
2023-03-26T15:12:15.640Z,100626.38
2023-03-26T15:14:57.331Z,100634.00
2023-03-26T15:17:43.607Z,100640.69
2023-03-26T15:20:35.217Z,100647.56
2023-03-26T15:23:20.612Z,100656.47
2023-03-26T15:26:09.924Z,100662.72
2023-03-26T15:28:57.137Z,100658.41
2023-03-26T15:31:54.595Z,100679.16
2023-03-26T15:34:34.070Z,100673.16
2023-03-26T15:37:21.727Z,100687.69
2023-03-26T15:40:09.725Z,100693.31
2023-03-26T15:42:47.172Z,100698.44
2023-03-26T15:45:22.886Z,100700.91
2023-03-26T15:48:34.846Z,100710.50
2023-03-26T15:51:03.913Z,100716.34
2023-03-26T15:53:51.964Z,100721.56
2023-03-26T15:56:43.606Z,100723.13
2023-03-26T15:59:47.858Z,100723.41
2023-03-26T16:02:38.960Z,100738.13
2023-03-26T16:05:25.256Z,100743.78
2023-03-26T16:08:09.218Z,100740.16
2023-03-26T16:10:44.591Z,100752.44
2023-03-26T16:13:37.805Z,100756.91
2023-03-26T16:16:04.342Z,100759.81
2023-03-26T16:18:51.052Z,100775.44
2023-03-26T16:21:34.593Z,100775.53
2023-03-26T16:24:07.485Z,100784.81
2023-03-26T16:26:53.101Z,100781.34
2023-03-26T16:29:26.052Z,100794.16
2023-03-26T16:32:11.227Z,100800.59
2023-03-26T16:34:53.070Z,100804.22
2023-03-26T16:37:40.052Z,100819.97
2023-03-26T16:40:20.426Z,100826.41
2023-03-26T16:43:09.924Z,100827.47
2023-03-26T16:45:45.967Z,100836.78
2023-03-26T16:48:15.529Z,100839.47
2023-03-26T16:51:03.793Z,100839.31
2023-03-26T16:53:41.772Z,100838.41
2023-03-26T16:56:22.333Z,100852.13
2023-03-26T16:58:58.723Z,100864.00
2023-03-26T17:01:35.811Z,100858.91
2023-03-26T17:04:24.816Z,100868.00
2023-03-26T17:06:56.654Z,100872.06
2023-03-26T17:09:33.945Z,100889.75
2023-03-26T17:12:19.310Z,100894.00
2023-03-26T17:14:54.521Z,100896.69
2023-03-26T17:17:30.641Z,100907.66
2023-03-26T17:20:33.265Z,100911.88
2023-03-26T17:23:18.836Z,100912.88
2023-03-26T17:26:04.247Z,100918.50
2023-03-26T17:28:35.317Z,100922.97
2023-03-26T17:31:10.906Z,100937.09
2023-03-26T17:33:39.173Z,100942.66
2023-03-26T17:36:12.279Z,100950.69
2023-03-26T17:38:45.507Z,100948.50
2023-03-26T17:41:15.403Z,100955.28
2023-03-26T17:43:50.244Z,100954.63
2023-03-26T17:46:34.838Z,100968.66
2023-03-26T17:49:18.590Z,100976.69
2023-03-26T17:51:50.375Z,100986.75
2023-03-26T17:54:24.521Z,100994.69
2023-03-26T17:56:53.154Z,101002.88
2023-03-26T17:59:23.527Z,101012.44
2023-03-26T18:01:55.881Z,101024.69
2023-03-26T18:04:38.300Z,101029.25
2023-03-26T18:07:20.259Z,101031.03
2023-03-26T18:09:50.162Z,101037.94
2023-03-26T18:12:34.698Z,101042.47
2023-03-26T18:15:11.925Z,101042.56
2023-03-26T18:17:46.219Z,101047.13
2023-03-26T18:20:24.697Z,101060.31
2023-03-26T18:22:51.848Z,101065.91
2023-03-26T18:25:35.097Z,101081.75
2023-03-26T18:28:02.443Z,101075.81
2023-03-26T18:30:29.380Z,101089.03
2023-03-26T18:33:12.863Z,101096.91
2023-03-26T18:35:54.486Z,101104.78
2023-03-26T18:38:35.642Z,101107.34
2023-03-26T18:41:06.778Z,101122.22
2023-03-26T18:43:35.266Z,101119.53
2023-03-26T18:46:03.604Z,101127.13
2023-03-26T18:48:30.299Z,101121.19
2023-03-26T18:51:07.164Z,101136.16
2023-03-26T18:54:00.356Z,101145.22
2023-03-26T18:56:30.091Z,101151.34
2023-03-26T18:58:59.252Z,101155.16
2023-03-26T19:01:31.182Z,101157.91
2023-03-26T19:04:05.206Z,101165.84
2023-03-26T19:06:36.048Z,101163.34
2023-03-26T19:09:23.716Z,101176.50
2023-03-26T19:11:59.330Z,101173.94
2023-03-26T19:14:27.551Z,101176.78
2023-03-26T19:16:58.987Z,101176.81
2023-03-26T19:19:31.464Z,101187.44
2023-03-26T19:21:59.504Z,101184.97
2023-03-26T19:24:27.033Z,101186.81
2023-03-26T19:26:53.646Z,101190.38
2023-03-26T19:29:25.876Z,101200.06
2023-03-26T19:31:52.774Z,101199.22
2023-03-26T19:34:32.312Z,101206.22
2023-03-26T19:37:01.124Z,101207.19
2023-03-26T19:39:41.578Z,101214.28
2023-03-26T19:42:13.500Z,101212.63
2023-03-26T19:44:41.070Z,101208.34
2023-03-26T19:47:29.301Z,101219.63
2023-03-26T19:50:26.039Z,101223.16
2023-03-26T19:53:18.850Z,101229.38
2023-03-26T19:55:58.838Z,101231.03
2023-03-26T19:58:26.839Z,101243.22
2023-03-26T20:00:56.009Z,101244.97
2023-03-26T20:03:38.149Z,101252.81
2023-03-26T20:06:04.954Z,101258.06
2023-03-26T20:08:32.074Z,101260.69
2023-03-26T20:10:59.195Z,101275.50
2023-03-26T20:13:26.272Z,101281.50
2023-03-26T20:16:07.197Z,101279.59
2023-03-26T20:18:34.931Z,101285.63
2023-03-26T20:21:01.628Z,101291.69
2023-03-26T20:23:28.975Z,101292.63
2023-03-26T20:25:56.457Z,101295.31
2023-03-26T20:28:24.469Z,101299.75
2023-03-26T20:30:54.355Z,101312.94
2023-03-26T20:33:27.776Z,101316.34
2023-03-26T20:35:55.809Z,101313.72
2023-03-26T20:38:36.691Z,101323.28
2023-03-26T20:41:07.034Z,101325.81
2023-03-26T20:43:33.658Z,101333.66
2023-03-26T20:46:00.679Z,101331.84
2023-03-26T20:48:27.233Z,101337.13
2023-03-26T20:50:54.156Z,101348.50
2023-03-26T20:53:20.975Z,101355.53
2023-03-26T20:55:49.256Z,101349.41
2023-03-26T20:58:31.741Z,101355.63
2023-03-26T21:01:02.232Z,101365.28
2023-03-26T21:03:29.038Z,101367.13
2023-03-26T21:06:00.000Z,101366.34
2023-03-26T21:08:30.195Z,101375.13
2023-03-26T21:11:01.976Z,101376.88
2023-03-26T21:13:43.656Z,101374.13
2023-03-26T21:16:12.087Z,101378.44
2023-03-26T21:18:39.681Z,101378.41
2023-03-26T21:21:24.464Z,101381.03
2023-03-26T21:24:19.628Z,101384.50
2023-03-26T21:27:28.568Z,101394.16
2023-03-26T21:29:56.108Z,101398.50
2023-03-26T21:32:23.296Z,101395.84
2023-03-26T21:34:58.699Z,101402.84
2023-03-26T21:37:27.035Z,101409.75
2023-03-26T21:39:53.847Z,101408.03
2023-03-26T21:42:20.962Z,101411.47
2023-03-26T21:44:47.802Z,101422.03
2023-03-26T21:47:14.882Z,101423.78
2023-03-26T21:49:41.718Z,101421.09
2023-03-26T21:52:14.644Z,101422.13
2023-03-26T21:54:43.323Z,101427.47
2023-03-26T21:57:12.743Z,101438.00
2023-03-26T21:59:47.984Z,101449.47
2023-03-26T22:02:33.374Z,101453.13
2023-03-26T22:05:06.047Z,101462.72
2023-03-26T22:07:37.799Z,101470.56
2023-03-26T22:10:05.394Z,101474.06
2023-03-26T22:12:31.919Z,101475.16
2023-03-26T22:14:58.753Z,101477.88
2023-03-26T22:17:25.262Z,101473.56
2023-03-26T22:19:51.836Z,101476.22
2023-03-26T22:22:18.364Z,101487.59
2023-03-26T22:24:45.181Z,101486.78
2023-03-26T22:27:13.134Z,101494.66
2023-03-26T22:29:39.905Z,101499.00
2023-03-26T22:32:06.545Z,101501.53
2023-03-26T22:34:34.990Z,101502.34
2023-03-26T22:37:01.562Z,101498.88
2023-03-26T22:39:28.758Z,101506.78
2023-03-26T22:41:55.470Z,101506.78
2023-03-26T22:44:21.980Z,101512.84
2023-03-26T22:46:51.409Z,101523.28
2023-03-26T22:49:18.411Z,101527.56
2023-03-26T22:51:44.932Z,101537.22
2023-03-26T22:54:11.476Z,101531.88
2023-03-26T22:56:38.045Z,101541.47
2023-03-26T22:59:04.722Z,101543.25
2023-03-26T23:01:31.337Z,101538.97
2023-03-26T23:03:58.269Z,101542.44
2023-03-26T23:06:25.186Z,101549.47
2023-03-26T23:08:51.996Z,101552.16
2023-03-26T23:11:19.914Z,101560.03
2023-03-26T23:13:47.438Z,101560.06
2023-03-26T23:16:15.615Z,101561.81
2023-03-26T23:18:42.845Z,101573.28
2023-03-26T23:21:18.134Z,101579.50
2023-03-26T23:23:45.026Z,101591.81
2023-03-26T23:26:11.524Z,101587.50
2023-03-26T23:28:38.375Z,101589.34
2023-03-26T23:31:06.930Z,101596.34
2023-03-26T23:33:35.868Z,101598.06
2023-03-26T23:36:08.969Z,101612.00
2023-03-26T23:38:43.755Z,101613.72
2023-03-26T23:41:15.282Z,101612.81
2023-03-26T23:43:53.521Z,101614.53
2023-03-26T23:46:26.346Z,101617.09
2023-03-26T23:48:53.363Z,101616.16
2023-03-26T23:51:20.628Z,101626.59
2023-03-26T23:53:48.004Z,101624.88
2023-03-26T23:56:15.283Z,101632.72
2023-03-26T23:58:41.931Z,101637.94
